Hauptseite
METAR-TAF:

METAR-TAF

Flughäfen :

Sydney, Australien

Kingsford Smith International Airport

Breite: 33-57S, Länge: 151-11E, Höhe: 6 m

Beobachtung

Neuester Wetterbericht von vor 1 Stunde und 5 Minuten, um 11:00 UTC
Wind 4 kt aus West/Südwest
Temperatur 14°C
Luftfeuchtigkeit 82%
Luftdruck 1024 hPa
Sichtweite 10 km oder mehr
keine Wolken unter 1500 m und keine Kumulonimbus oder Gewitterwolken

METAR: YSSY 221100Z 25004KT CAVOK 14/11 Q1024 NOSIG

Zeit: 22:05 (12:05 UTC)

Prognose

Neuester Wetterbericht von vor 1 Stunde und 4 Minuten, um 11:01 UTC
Gültige Prognose vom 22 um 12 UTC bis 23 um 18 UTC
Wind 8 kt aus West/Nordwest
Sichtweite 10 km oder mehr
keine Wolken unter 1500 m und keine Kumulonimbus oder Gewitterwolken
Wahrscheinlichkeit 30%
vom 22 um 19 UTC bis 22 um 23 UTC
Sichtweite: 0500 m
Nebel

TAF: YSSY 221101Z 2212/2318 29008KT CAVOK PROB30 2219/2223 0500 FG

Wetterbeobachtungen und Prognosen von mehr als 4000 Flughäfen (METAR und TAF Bericht).

Die verfügbaren Stationen werden durch gelbe und rote Markierungen auf der Karte dargestellt.

Führen Sie die Maus auf sie, um den Namen der Station zu sehen.

Darauf klicken, um die Beobachtung von Wetterbeobachtungen und Prognosen zu sehen.

Um die Karte zu ändern : klicken Sie auf den grünen Tasten mit einem schwarzen Kreuz Zum Vergrößern, auf den grünen Button mit einem Gedankenstrich zu verkleinern, oder auf die grünen Pfeile für benachbarte Karten.


METAR-TAF: